sensor_id;sensor_type;location;lat;lon;timestamp;temperature;humidity
52459;DHT22;38372;52.902;6.024;2023-09-30T00:01:44;11.40;99.90
52459;DHT22;38372;52.902;6.024;2023-09-30T00:04:10;11.40;99.90
52459;DHT22;38372;52.902;6.024;2023-09-30T00:06:36;11.40;99.90
52459;DHT22;38372;52.902;6.024;2023-09-30T00:09:02;11.40;99.90
52459;DHT22;38372;52.902;6.024;2023-09-30T00:11:28;11.40;99.90
52459;DHT22;38372;52.902;6.024;2023-09-30T00:13:54;11.40;99.90
52459;DHT22;38372;52.902;6.024;2023-09-30T00:16:20;11.40;99.90
52459;DHT22;38372;52.902;6.024;2023-09-30T00:18:46;11.40;99.90
52459;DHT22;38372;52.902;6.024;2023-09-30T00:21:12;11.50;99.90
52459;DHT22;38372;52.902;6.024;2023-09-30T00:23:38;11.50;99.90
52459;DHT22;38372;52.902;6.024;2023-09-30T00:26:04;11.60;99.90
52459;DHT22;38372;52.902;6.024;2023-09-30T00:28:30;11.60;99.90
52459;DHT22;38372;52.902;6.024;2023-09-30T00:30:56;11.60;99.90
52459;DHT22;38372;52.902;6.024;2023-09-30T00:33:22;11.60;99.90
52459;DHT22;38372;52.902;6.024;2023-09-30T00:35:48;11.60;99.90
52459;DHT22;38372;52.902;6.024;2023-09-30T00:38:14;11.70;99.90
52459;DHT22;38372;52.902;6.024;2023-09-30T00:40:49;11.60;99.90
52459;DHT22;38372;52.902;6.024;2023-09-30T00:43:21;11.70;99.90
52459;DHT22;38372;52.902;6.024;2023-09-30T00:45:48;11.70;99.90
52459;DHT22;38372;52.902;6.024;2023-09-30T00:48:15;11.70;99.90
52459;DHT22;38372;52.902;6.024;2023-09-30T00:50:41;11.80;99.90
52459;DHT22;38372;52.902;6.024;2023-09-30T00:53:07;11.80;99.90
52459;DHT22;38372;52.902;6.024;2023-09-30T00:55:33;11.80;99.90
52459;DHT22;38372;52.902;6.024;2023-09-30T00:57:59;11.90;99.90
52459;DHT22;38372;52.902;6.024;2023-09-30T01:00:25;11.90;99.90
52459;DHT22;38372;52.902;6.024;2023-09-30T01:02:51;12.00;99.90
52459;DHT22;38372;52.902;6.024;2023-09-30T01:05:19;12.00;99.90
52459;DHT22;38372;52.902;6.024;2023-09-30T01:07:44;12.00;99.90
52459;DHT22;38372;52.902;6.024;2023-09-30T01:10:10;12.00;99.90
52459;DHT22;38372;52.902;6.024;2023-09-30T01:12:36;12.00;99.90
52459;DHT22;38372;52.902;6.024;2023-09-30T01:15:03;11.90;99.90
52459;DHT22;38372;52.902;6.024;2023-09-30T01:17:31;12.00;99.90
52459;DHT22;38372;52.902;6.024;2023-09-30T01:19:58;11.90;99.90
52459;DHT22;38372;52.902;6.024;2023-09-30T01:22:30;11.90;99.90
52459;DHT22;38372;52.902;6.024;2023-09-30T01:24:56;11.90;99.90
52459;DHT22;38372;52.902;6.024;2023-09-30T01:27:22;11.90;99.90
52459;DHT22;38372;52.902;6.024;2023-09-30T01:29:48;11.90;99.90
52459;DHT22;38372;52.902;6.024;2023-09-30T01:32:15;11.90;99.90
52459;DHT22;38372;52.902;6.024;2023-09-30T01:34:41;11.90;99.90
52459;DHT22;38372;52.902;6.024;2023-09-30T01:37:07;12.00;99.90
52459;DHT22;38372;52.902;6.024;2023-09-30T01:39:32;12.00;99.90
52459;DHT22;38372;52.902;6.024;2023-09-30T01:41:59;12.00;99.90
52459;DHT22;38372;52.902;6.024;2023-09-30T01:44:25;11.90;99.90
52459;DHT22;38372;52.902;6.024;2023-09-30T01:46:51;12.00;99.90
52459;DHT22;38372;52.902;6.024;2023-09-30T01:49:17;12.00;99.90
52459;DHT22;38372;52.902;6.024;2023-09-30T01:51:49;12.00;99.90
52459;DHT22;38372;52.902;6.024;2023-09-30T01:54:15;11.90;99.90
52459;DHT22;38372;52.902;6.024;2023-09-30T01:56:41;11.90;99.90
52459;DHT22;38372;52.902;6.024;2023-09-30T01:59:06;12.00;99.90
52459;DHT22;38372;52.902;6.024;2023-09-30T02:01:32;11.90;99.90
52459;DHT22;38372;52.902;6.024;2023-09-30T02:03:58;11.90;99.90
52459;DHT22;38372;52.902;6.024;2023-09-30T02:06:24;11.90;99.90
52459;DHT22;38372;52.902;6.024;2023-09-30T02:08:49;11.90;99.90
52459;DHT22;38372;52.902;6.024;2023-09-30T02:11:15;12.00;99.90
52459;DHT22;38372;52.902;6.024;2023-09-30T02:13:42;11.90;99.90
52459;DHT22;38372;52.902;6.024;2023-09-30T02:16:13;12.00;99.90
52459;DHT22;38372;52.902;6.024;2023-09-30T02:18:42;11.90;99.90
52459;DHT22;38372;52.902;6.024;2023-09-30T02:21:08;11.90;99.90
52459;DHT22;38372;52.902;6.024;2023-09-30T02:23:36;12.00;99.90
52459;DHT22;38372;52.902;6.024;2023-09-30T02:26:03;11.90;99.90
52459;DHT22;38372;52.902;6.024;2023-09-30T02:28:29;11.90;99.90
52459;DHT22;38372;52.902;6.024;2023-09-30T02:30:59;12.00;99.90
52459;DHT22;38372;52.902;6.024;2023-09-30T02:33:25;12.00;99.90
52459;DHT22;38372;52.902;6.024;2023-09-30T02:35:51;12.00;99.90
52459;DHT22;38372;52.902;6.024;2023-09-30T02:38:17;11.90;99.90
52459;DHT22;38372;52.902;6.024;2023-09-30T02:40:44;12.00;99.90
52459;DHT22;38372;52.902;6.024;2023-09-30T02:43:12;12.00;99.90
52459;DHT22;38372;52.902;6.024;2023-09-30T02:45:39;12.00;99.90
52459;DHT22;38372;52.902;6.024;2023-09-30T02:48:05;12.00;99.90
52459;DHT22;38372;52.902;6.024;2023-09-30T02:50:32;11.90;99.90
52459;DHT22;38372;52.902;6.024;2023-09-30T02:52:57;11.90;99.90
52459;DHT22;38372;52.902;6.024;2023-09-30T02:55:23;11.90;99.90
52459;DHT22;38372;52.902;6.024;2023-09-30T02:57:49;12.00;99.90
52459;DHT22;38372;52.902;6.024;2023-09-30T03:00:15;11.90;99.90
52459;DHT22;38372;52.902;6.024;2023-09-30T03:02:56;12.00;99.90
52459;DHT22;38372;52.902;6.024;2023-09-30T03:05:22;12.00;99.90
52459;DHT22;38372;52.902;6.024;2023-09-30T03:07:49;12.10;99.90
52459;DHT22;38372;52.902;6.024;2023-09-30T03:10:18;12.10;99.90
52459;DHT22;38372;52.902;6.024;2023-09-30T03:12:48;12.10;99.90
52459;DHT22;38372;52.902;6.024;2023-09-30T03:15:14;12.10;99.90
52459;DHT22;38372;52.902;6.024;2023-09-30T03:17:41;12.00;99.90
52459;DHT22;38372;52.902;6.024;2023-09-30T03:20:08;12.00;99.90
52459;DHT22;38372;52.902;6.024;2023-09-30T03:22:39;12.00;99.90
52459;DHT22;38372;52.902;6.024;2023-09-30T03:25:07;12.00;99.90
52459;DHT22;38372;52.902;6.024;2023-09-30T03:27:33;12.00;99.90
52459;DHT22;38372;52.902;6.024;2023-09-30T03:29:59;12.00;99.90
52459;DHT22;38372;52.902;6.024;2023-09-30T03:32:27;12.00;99.90
52459;DHT22;38372;52.902;6.024;2023-09-30T03:34:53;12.00;99.90
52459;DHT22;38372;52.902;6.024;2023-09-30T03:37:19;11.90;99.90
52459;DHT22;38372;52.902;6.024;2023-09-30T03:39:45;11.90;99.90
52459;DHT22;38372;52.902;6.024;2023-09-30T03:42:14;11.90;99.90
52459;DHT22;38372;52.902;6.024;2023-09-30T03:44:40;11.90;99.90
52459;DHT22;38372;52.902;6.024;2023-09-30T03:47:06;11.90;99.90
52459;DHT22;38372;52.902;6.024;2023-09-30T03:49:33;11.90;99.90
52459;DHT22;38372;52.902;6.024;2023-09-30T03:51:59;11.90;99.90
52459;DHT22;38372;52.902;6.024;2023-09-30T03:54:27;11.90;99.90
52459;DHT22;38372;52.902;6.024;2023-09-30T03:56:52;11.90;99.90
52459;DHT22;38372;52.902;6.024;2023-09-30T03:59:18;11.90;99.90
52459;DHT22;38372;52.902;6.024;2023-09-30T04:01:44;11.90;99.90
52459;DHT22;38372;52.902;6.024;2023-09-30T04:04:13;11.90;99.90
52459;DHT22;38372;52.902;6.024;2023-09-30T04:06:39;11.90;99.90
52459;DHT22;38372;52.902;6.024;2023-09-30T04:09:05;11.90;99.90
52459;DHT22;38372;52.902;6.024;2023-09-30T04:11:38;11.90;99.90
52459;DHT22;38372;52.902;6.024;2023-09-30T04:14:07;12.00;99.90
52459;DHT22;38372;52.902;6.024;2023-09-30T04:16:33;12.00;99.90
52459;DHT22;38372;52.902;6.024;2023-09-30T04:18:59;12.00;99.90
52459;DHT22;38372;52.902;6.024;2023-09-30T04:21:26;12.00;99.90
52459;DHT22;38372;52.902;6.024;2023-09-30T04:23:54;11.90;99.90
52459;DHT22;38372;52.902;6.024;2023-09-30T04:26:20;11.90;99.90
52459;DHT22;38372;52.902;6.024;2023-09-30T04:28:45;11.90;99.90
52459;DHT22;38372;52.902;6.024;2023-09-30T04:31:11;11.90;99.90
52459;DHT22;38372;52.902;6.024;2023-09-30T04:33:38;11.80;99.90
52459;DHT22;38372;52.902;6.024;2023-09-30T04:36:06;11.80;99.90
52459;DHT22;38372;52.902;6.024;2023-09-30T04:38:34;11.80;99.90
52459;DHT22;38372;52.902;6.024;2023-09-30T04:41:03;11.80;99.90
52459;DHT22;38372;52.902;6.024;2023-09-30T04:43:29;11.70;99.90
52459;DHT22;38372;52.902;6.024;2023-09-30T04:45:55;11.70;99.90
52459;DHT22;38372;52.902;6.024;2023-09-30T04:48:25;11.70;99.90
52459;DHT22;38372;52.902;6.024;2023-09-30T04:50:51;11.70;99.90
52459;DHT22;38372;52.902;6.024;2023-09-30T04:53:18;11.60;99.90
52459;DHT22;38372;52.902;6.024;2023-09-30T04:55:44;11.60;99.90
52459;DHT22;38372;52.902;6.024;2023-09-30T04:58:11;11.60;99.90
52459;DHT22;38372;52.902;6.024;2023-09-30T05:00:38;11.70;99.90
52459;DHT22;38372;52.902;6.024;2023-09-30T05:03:05;11.70;99.90
52459;DHT22;38372;52.902;6.024;2023-09-30T05:05:30;11.70;99.90
52459;DHT22;38372;52.902;6.024;2023-09-30T05:07:57;11.60;99.90
52459;DHT22;38372;52.902;6.024;2023-09-30T05:10:24;11.60;99.90
52459;DHT22;38372;52.902;6.024;2023-09-30T05:12:50;11.60;99.90
52459;DHT22;38372;52.902;6.024;2023-09-30T05:15:20;11.60;99.90
52459;DHT22;38372;52.902;6.024;2023-09-30T05:17:48;11.50;99.90
52459;DHT22;38372;52.902;6.024;2023-09-30T05:20:14;11.50;99.90
52459;DHT22;38372;52.902;6.024;2023-09-30T05:22:43;11.50;99.90
52459;DHT22;38372;52.902;6.024;2023-09-30T05:25:15;11.40;99.90
52459;DHT22;38372;52.902;6.024;2023-09-30T05:27:42;11.40;99.90
52459;DHT22;38372;52.902;6.024;2023-09-30T05:30:08;11.40;99.90
52459;DHT22;38372;52.902;6.024;2023-09-30T05:32:37;11.30;99.90
52459;DHT22;38372;52.902;6.024;2023-09-30T05:35:05;11.20;99.90
52459;DHT22;38372;52.902;6.024;2023-09-30T05:37:31;11.20;99.90
52459;DHT22;38372;52.902;6.024;2023-09-30T05:39:57;11.20;99.90
52459;DHT22;38372;52.902;6.024;2023-09-30T05:42:23;11.10;99.90
52459;DHT22;38372;52.902;6.024;2023-09-30T05:44:49;11.10;99.90
52459;DHT22;38372;52.902;6.024;2023-09-30T05:47:15;11.10;99.90
52459;DHT22;38372;52.902;6.024;2023-09-30T05:49:43;11.10;99.90
52459;DHT22;38372;52.902;6.024;2023-09-30T05:52:09;11.10;99.90
52459;DHT22;38372;52.902;6.024;2023-09-30T05:54:35;11.10;99.90
52459;DHT22;38372;52.902;6.024;2023-09-30T05:57:00;11.10;99.90
52459;DHT22;38372;52.902;6.024;2023-09-30T05:59:28;11.10;99.90
52459;DHT22;38372;52.902;6.024;2023-09-30T06:01:54;11.10;99.90
52459;DHT22;38372;52.902;6.024;2023-09-30T06:04:20;11.10;99.90
52459;DHT22;38372;52.902;6.024;2023-09-30T06:06:46;11.10;99.90
52459;DHT22;38372;52.902;6.024;2023-09-30T06:09:12;11.10;99.90
52459;DHT22;38372;52.902;6.024;2023-09-30T06:11:38;11.10;99.90
52459;DHT22;38372;52.902;6.024;2023-09-30T06:14:06;11.20;99.90
52459;DHT22;38372;52.902;6.024;2023-09-30T06:16:33;11.20;99.90
52459;DHT22;38372;52.902;6.024;2023-09-30T06:19:00;11.20;99.90
52459;DHT22;38372;52.902;6.024;2023-09-30T06:21:27;11.30;99.90
52459;DHT22;38372;52.902;6.024;2023-09-30T06:23:55;11.30;99.90
52459;DHT22;38372;52.902;6.024;2023-09-30T06:26:21;11.40;99.90
52459;DHT22;38372;52.902;6.024;2023-09-30T06:28:47;11.40;99.90
52459;DHT22;38372;52.902;6.024;2023-09-30T06:31:13;11.50;99.90
52459;DHT22;38372;52.902;6.024;2023-09-30T06:33:40;11.50;99.90
52459;DHT22;38372;52.902;6.024;2023-09-30T06:36:11;11.60;99.90
52459;DHT22;38372;52.902;6.024;2023-09-30T06:38:39;11.60;99.90
52459;DHT22;38372;52.902;6.024;2023-09-30T06:41:08;11.70;99.90
52459;DHT22;38372;52.902;6.024;2023-09-30T06:43:34;11.70;99.90
52459;DHT22;38372;52.902;6.024;2023-09-30T06:46:10;11.80;99.90
52459;DHT22;38372;52.902;6.024;2023-09-30T06:48:37;11.90;99.90
52459;DHT22;38372;52.902;6.024;2023-09-30T06:51:02;11.90;99.90
52459;DHT22;38372;52.902;6.024;2023-09-30T06:53:28;12.00;99.90
52459;DHT22;38372;52.902;6.024;2023-09-30T06:55:54;12.00;99.90
52459;DHT22;38372;52.902;6.024;2023-09-30T06:58:20;12.10;99.90
52459;DHT22;38372;52.902;6.024;2023-09-30T07:00:47;12.20;99.90
52459;DHT22;38372;52.902;6.024;2023-09-30T07:03:15;12.30;99.90
52459;DHT22;38372;52.902;6.024;2023-09-30T07:05:41;12.40;99.90
52459;DHT22;38372;52.902;6.024;2023-09-30T07:08:07;12.50;99.90
52459;DHT22;38372;52.902;6.024;2023-09-30T07:10:33;12.60;99.90
52459;DHT22;38372;52.902;6.024;2023-09-30T07:13:04;12.70;99.90
52459;DHT22;38372;52.902;6.024;2023-09-30T07:15:32;12.80;99.90
52459;DHT22;38372;52.902;6.024;2023-09-30T07:17:58;13.00;99.90
52459;DHT22;38372;52.902;6.024;2023-09-30T07:20:24;13.00;99.90
52459;DHT22;38372;52.902;6.024;2023-09-30T07:22:50;13.20;99.90
52459;DHT22;38372;52.902;6.024;2023-09-30T07:25:16;13.30;99.90
52459;DHT22;38372;52.902;6.024;2023-09-30T07:27:46;13.40;99.90
52459;DHT22;38372;52.902;6.024;2023-09-30T07:30:13;13.60;99.90
52459;DHT22;38372;52.902;6.024;2023-09-30T07:32:44;13.70;99.90
52459;DHT22;38372;52.902;6.024;2023-09-30T07:35:10;13.80;99.90
52459;DHT22;38372;52.902;6.024;2023-09-30T07:37:36;13.90;99.90
52459;DHT22;38372;52.902;6.024;2023-09-30T07:40:02;14.00;99.90
52459;DHT22;38372;52.902;6.024;2023-09-30T07:42:28;14.10;99.90
52459;DHT22;38372;52.902;6.024;2023-09-30T07:44:53;14.30;99.90
52459;DHT22;38372;52.902;6.024;2023-09-30T07:47:19;14.40;99.90
52459;DHT22;38372;52.902;6.024;2023-09-30T07:49:45;14.50;99.90
52459;DHT22;38372;52.902;6.024;2023-09-30T07:52:12;14.60;99.90
52459;DHT22;38372;52.902;6.024;2023-09-30T07:54:38;14.80;99.90
52459;DHT22;38372;52.902;6.024;2023-09-30T07:57:03;14.90;99.90
52459;DHT22;38372;52.902;6.024;2023-09-30T07:59:30;15.10;99.90
52459;DHT22;38372;52.902;6.024;2023-09-30T08:01:56;15.30;99.90
52459;DHT22;38372;52.902;6.024;2023-09-30T08:04:22;15.50;99.90
52459;DHT22;38372;52.902;6.024;2023-09-30T08:06:49;15.60;99.90
52459;DHT22;38372;52.902;6.024;2023-09-30T08:09:16;15.90;99.90
52459;DHT22;38372;52.902;6.024;2023-09-30T08:11:44;16.10;99.90
52459;DHT22;38372;52.902;6.024;2023-09-30T08:14:10;16.40;99.90
52459;DHT22;38372;52.902;6.024;2023-09-30T08:16:36;16.90;99.90
52459;DHT22;38372;52.902;6.024;2023-09-30T08:19:03;17.50;99.90
52459;DHT22;38372;52.902;6.024;2023-09-30T08:21:29;18.00;99.90
52459;DHT22;38372;52.902;6.024;2023-09-30T08:23:58;18.50;99.90
52459;DHT22;38372;52.902;6.024;2023-09-30T08:26:24;18.80;99.90
52459;DHT22;38372;52.902;6.024;2023-09-30T08:28:51;19.10;99.90
52459;DHT22;38372;52.902;6.024;2023-09-30T08:31:17;19.40;99.90
52459;DHT22;38372;52.902;6.024;2023-09-30T08:33:42;19.70;99.90
52459;DHT22;38372;52.902;6.024;2023-09-30T08:36:11;20.00;99.90
52459;DHT22;38372;52.902;6.024;2023-09-30T08:38:38;20.00;99.90
52459;DHT22;38372;52.902;6.024;2023-09-30T08:41:04;20.00;99.90
52459;DHT22;38372;52.902;6.024;2023-09-30T08:43:30;20.20;99.90
52459;DHT22;38372;52.902;6.024;2023-09-30T08:46:00;20.50;99.90
52459;DHT22;38372;52.902;6.024;2023-09-30T08:48:28;20.80;99.90
52459;DHT22;38372;52.902;6.024;2023-09-30T08:50:56;21.10;99.90
52459;DHT22;38372;52.902;6.024;2023-09-30T08:53:23;21.30;99.90
52459;DHT22;38372;52.902;6.024;2023-09-30T08:55:53;21.60;99.90
52459;DHT22;38372;52.902;6.024;2023-09-30T08:58:23;21.90;99.90
52459;DHT22;38372;52.902;6.024;2023-09-30T09:00:50;22.30;99.90
52459;DHT22;38372;52.902;6.024;2023-09-30T09:03:18;22.50;99.90
52459;DHT22;38372;52.902;6.024;2023-09-30T09:05:44;22.60;99.90
52459;DHT22;38372;52.902;6.024;2023-09-30T09:08:10;22.90;99.90
52459;DHT22;38372;52.902;6.024;2023-09-30T09:10:53;23.20;99.90
52459;DHT22;38372;52.902;6.024;2023-09-30T09:13:20;23.70;99.90
52459;DHT22;38372;52.902;6.024;2023-09-30T09:15:46;24.10;99.90
52459;DHT22;38372;52.902;6.024;2023-09-30T09:18:11;24.40;99.90
52459;DHT22;38372;52.902;6.024;2023-09-30T09:20:39;24.80;99.90
52459;DHT22;38372;52.902;6.024;2023-09-30T09:23:06;24.70;99.90
52459;DHT22;38372;52.902;6.024;2023-09-30T09:25:38;24.50;99.90
52459;DHT22;38372;52.902;6.024;2023-09-30T09:28:04;24.60;99.90
52459;DHT22;38372;52.902;6.024;2023-09-30T09:30:30;25.00;99.90
52459;DHT22;38372;52.902;6.024;2023-09-30T09:33:05;25.30;99.90
52459;DHT22;38372;52.902;6.024;2023-09-30T09:35:32;25.40;99.90
52459;DHT22;38372;52.902;6.024;2023-09-30T09:38:08;25.10;99.90
52459;DHT22;38372;52.902;6.024;2023-09-30T09:40:38;24.90;99.90
52459;DHT22;38372;52.902;6.024;2023-09-30T09:43:06;24.80;99.90
52459;DHT22;38372;52.902;6.024;2023-09-30T09:45:34;24.90;99.90
52459;DHT22;38372;52.902;6.024;2023-09-30T09:48:00;25.10;99.90
52459;DHT22;38372;52.902;6.024;2023-09-30T09:50:26;25.20;99.90
52459;DHT22;38372;52.902;6.024;2023-09-30T09:52:54;25.40;99.90
52459;DHT22;38372;52.902;6.024;2023-09-30T09:55:22;25.80;99.90
52459;DHT22;38372;52.902;6.024;2023-09-30T09:57:49;26.20;99.90
52459;DHT22;38372;52.902;6.024;2023-09-30T10:00:24;26.50;99.90
52459;DHT22;38372;52.902;6.024;2023-09-30T10:02:51;26.60;99.90
52459;DHT22;38372;52.902;6.024;2023-09-30T10:05:18;26.80;99.90
52459;DHT22;38372;52.902;6.024;2023-09-30T10:07:52;26.80;99.90
52459;DHT22;38372;52.902;6.024;2023-09-30T10:10:20;26.70;99.90
52459;DHT22;38372;52.902;6.024;2023-09-30T10:12:47;26.80;99.90
52459;DHT22;38372;52.902;6.024;2023-09-30T10:18:10;26.90;99.90
52459;DHT22;38372;52.902;6.024;2023-09-30T10:20:41;26.60;99.90
52459;DHT22;38372;52.902;6.024;2023-09-30T10:23:27;26.80;99.90
52459;DHT22;38372;52.902;6.024;2023-09-30T10:28:44;26.60;99.90
52459;DHT22;38372;52.902;6.024;2023-09-30T10:31:22;26.20;99.90
52459;DHT22;38372;52.902;6.024;2023-09-30T10:38:56;24.10;99.90
52459;DHT22;38372;52.902;6.024;2023-09-30T10:46:59;21.90;99.90
52459;DHT22;38372;52.902;6.024;2023-09-30T10:51:55;22.40;99.90
52459;DHT22;38372;52.902;6.024;2023-09-30T10:54:32;22.20;99.90
52459;DHT22;38372;52.902;6.024;2023-09-30T10:56:59;21.80;99.90
52459;DHT22;38372;52.902;6.024;2023-09-30T10:59:27;22.00;99.90
52459;DHT22;38372;52.902;6.024;2023-09-30T11:01:55;22.70;99.90
52459;DHT22;38372;52.902;6.024;2023-09-30T11:04:21;23.40;99.90
52459;DHT22;38372;52.902;6.024;2023-09-30T11:06:47;23.70;99.90
52459;DHT22;38372;52.902;6.024;2023-09-30T11:09:20;23.90;99.90
52459;DHT22;38372;52.902;6.024;2023-09-30T11:11:51;24.30;99.90
52459;DHT22;38372;52.902;6.024;2023-09-30T11:14:24;24.50;99.90
52459;DHT22;38372;52.902;6.024;2023-09-30T11:16:51;24.80;99.90
52459;DHT22;38372;52.902;6.024;2023-09-30T11:19:18;25.30;99.90
52459;DHT22;38372;52.902;6.024;2023-09-30T11:21:48;25.50;99.90
52459;DHT22;38372;52.902;6.024;2023-09-30T11:24:15;25.00;99.90
52459;DHT22;38372;52.902;6.024;2023-09-30T11:26:41;24.40;99.90
52459;DHT22;38372;52.902;6.024;2023-09-30T11:29:09;24.10;99.90
52459;DHT22;38372;52.902;6.024;2023-09-30T11:31:40;23.70;99.90
52459;DHT22;38372;52.902;6.024;2023-09-30T11:34:07;23.50;99.90
52459;DHT22;38372;52.902;6.024;2023-09-30T11:36:38;23.50;99.90
52459;DHT22;38372;52.902;6.024;2023-09-30T11:39:05;23.50;99.90
52459;DHT22;38372;52.902;6.024;2023-09-30T11:41:37;23.60;99.90
52459;DHT22;38372;52.902;6.024;2023-09-30T11:44:08;23.50;99.90
52459;DHT22;38372;52.902;6.024;2023-09-30T11:46:55;23.60;99.90
52459;DHT22;38372;52.902;6.024;2023-09-30T11:49:32;23.50;99.10
52459;DHT22;38372;52.902;6.024;2023-09-30T11:52:03;23.40;98.30
52459;DHT22;38372;52.902;6.024;2023-09-30T11:54:37;23.30;98.90
52459;DHT22;38372;52.902;6.024;2023-09-30T11:57:05;23.40;97.70
52459;DHT22;38372;52.902;6.024;2023-09-30T11:59:31;23.40;97.80
52459;DHT22;38372;52.902;6.024;2023-09-30T12:01:58;23.40;97.10
52459;DHT22;38372;52.902;6.024;2023-09-30T12:04:24;23.50;97.30
52459;DHT22;38372;52.902;6.024;2023-09-30T12:06:50;23.40;97.20
52459;DHT22;38372;52.902;6.024;2023-09-30T12:09:17;23.40;96.70
52459;DHT22;38372;52.902;6.024;2023-09-30T12:11:51;23.40;95.90
52459;DHT22;38372;52.902;6.024;2023-09-30T12:14:17;23.40;95.80
52459;DHT22;38372;52.902;6.024;2023-09-30T12:16:43;23.50;96.20
52459;DHT22;38372;52.902;6.024;2023-09-30T12:19:14;23.50;95.90
52459;DHT22;38372;52.902;6.024;2023-09-30T12:21:41;23.30;95.90
52459;DHT22;38372;52.902;6.024;2023-09-30T12:24:08;23.30;96.20
52459;DHT22;38372;52.902;6.024;2023-09-30T12:26:40;23.20;95.90
52459;DHT22;38372;52.902;6.024;2023-09-30T12:29:07;23.10;96.20
52459;DHT22;38372;52.902;6.024;2023-09-30T12:31:34;23.10;96.60
52459;DHT22;38372;52.902;6.024;2023-09-30T12:34:00;23.00;96.50
52459;DHT22;38372;52.902;6.024;2023-09-30T12:36:26;22.80;97.10
52459;DHT22;38372;52.902;6.024;2023-09-30T12:38:52;22.70;97.50
52459;DHT22;38372;52.902;6.024;2023-09-30T12:41:17;22.90;97.90
52459;DHT22;38372;52.902;6.024;2023-09-30T12:43:45;23.10;97.60
52459;DHT22;38372;52.902;6.024;2023-09-30T12:46:11;23.20;97.20
52459;DHT22;38372;52.902;6.024;2023-09-30T12:48:40;23.20;97.50
52459;DHT22;38372;52.902;6.024;2023-09-30T12:51:06;23.30;97.60
52459;DHT22;38372;52.902;6.024;2023-09-30T12:53:35;23.50;97.70
52459;DHT22;38372;52.902;6.024;2023-09-30T12:56:01;23.60;97.40
52459;DHT22;38372;52.902;6.024;2023-09-30T12:58:27;23.60;97.80
52459;DHT22;38372;52.902;6.024;2023-09-30T13:00:55;23.70;97.80
52459;DHT22;38372;52.902;6.024;2023-09-30T13:03:21;23.50;97.00
52459;DHT22;38372;52.902;6.024;2023-09-30T13:05:46;23.20;97.00
52459;DHT22;38372;52.902;6.024;2023-09-30T13:08:12;22.90;97.10
52459;DHT22;38372;52.902;6.024;2023-09-30T13:10:38;22.60;97.10
52459;DHT22;38372;52.902;6.024;2023-09-30T13:13:04;22.30;97.80
52459;DHT22;38372;52.902;6.024;2023-09-30T13:15:30;22.00;98.10
52459;DHT22;38372;52.902;6.024;2023-09-30T13:17:56;21.80;98.60
52459;DHT22;38372;52.902;6.024;2023-09-30T13:20:22;21.50;98.70
52459;DHT22;38372;52.902;6.024;2023-09-30T13:22:48;21.30;98.90
52459;DHT22;38372;52.902;6.024;2023-09-30T13:25:13;21.20;99.40
52459;DHT22;38372;52.902;6.024;2023-09-30T13:27:41;21.10;99.80
52459;DHT22;38372;52.902;6.024;2023-09-30T13:30:07;21.10;99.90
52459;DHT22;38372;52.902;6.024;2023-09-30T13:32:34;21.20;99.90
52459;DHT22;38372;52.902;6.024;2023-09-30T13:35:04;21.30;99.90
52459;DHT22;38372;52.902;6.024;2023-09-30T13:37:33;21.40;99.10
52459;DHT22;38372;52.902;6.024;2023-09-30T13:40:03;21.30;99.10
52459;DHT22;38372;52.902;6.024;2023-09-30T13:42:37;21.30;99.40
52459;DHT22;38372;52.902;6.024;2023-09-30T13:45:03;21.10;99.40
52459;DHT22;38372;52.902;6.024;2023-09-30T13:47:29;20.90;99.60
52459;DHT22;38372;52.902;6.024;2023-09-30T13:49:54;20.70;99.80
52459;DHT22;38372;52.902;6.024;2023-09-30T13:52:21;20.60;99.80
52459;DHT22;38372;52.902;6.024;2023-09-30T13:54:47;20.50;99.90
52459;DHT22;38372;52.902;6.024;2023-09-30T13:57:13;20.50;99.90
52459;DHT22;38372;52.902;6.024;2023-09-30T13:59:39;20.40;99.90
52459;DHT22;38372;52.902;6.024;2023-09-30T14:02:07;20.20;99.90
52459;DHT22;38372;52.902;6.024;2023-09-30T14:04:33;20.30;99.90
52459;DHT22;38372;52.902;6.024;2023-09-30T14:07:01;20.30;99.90
52459;DHT22;38372;52.902;6.024;2023-09-30T14:09:28;20.40;99.90
52459;DHT22;38372;52.902;6.024;2023-09-30T14:11:54;20.30;99.90
52459;DHT22;38372;52.902;6.024;2023-09-30T14:14:20;20.20;99.90
52459;DHT22;38372;52.902;6.024;2023-09-30T14:16:46;20.10;99.90
52459;DHT22;38372;52.902;6.024;2023-09-30T14:19:13;20.10;99.90
52459;DHT22;38372;52.902;6.024;2023-09-30T14:21:40;20.10;99.90
52459;DHT22;38372;52.902;6.024;2023-09-30T14:24:06;20.00;99.90
52459;DHT22;38372;52.902;6.024;2023-09-30T14:26:32;19.90;99.90
52459;DHT22;38372;52.902;6.024;2023-09-30T14:28:59;19.90;99.90
52459;DHT22;38372;52.902;6.024;2023-09-30T14:31:25;19.80;99.90
52459;DHT22;38372;52.902;6.024;2023-09-30T14:33:51;19.80;99.90
52459;DHT22;38372;52.902;6.024;2023-09-30T14:36:17;19.80;99.90
52459;DHT22;38372;52.902;6.024;2023-09-30T14:38:46;19.70;99.90
52459;DHT22;38372;52.902;6.024;2023-09-30T14:41:12;19.70;99.90
52459;DHT22;38372;52.902;6.024;2023-09-30T14:43:41;19.60;99.90
52459;DHT22;38372;52.902;6.024;2023-09-30T14:46:07;19.50;99.90
52459;DHT22;38372;52.902;6.024;2023-09-30T14:48:34;19.50;99.90
52459;DHT22;38372;52.902;6.024;2023-09-30T14:51:01;19.40;99.90
52459;DHT22;38372;52.902;6.024;2023-09-30T14:53:30;19.40;99.90
52459;DHT22;38372;52.902;6.024;2023-09-30T14:55:56;19.40;99.90
52459;DHT22;38372;52.902;6.024;2023-09-30T14:58:22;19.40;99.90
52459;DHT22;38372;52.902;6.024;2023-09-30T15:00:47;19.40;99.90
52459;DHT22;38372;52.902;6.024;2023-09-30T15:03:13;19.50;99.90
52459;DHT22;38372;52.902;6.024;2023-09-30T15:05:39;19.60;99.90
52459;DHT22;38372;52.902;6.024;2023-09-30T15:08:05;19.60;99.90
52459;DHT22;38372;52.902;6.024;2023-09-30T15:10:34;19.60;99.90
52459;DHT22;38372;52.902;6.024;2023-09-30T15:13:01;19.70;99.90
52459;DHT22;38372;52.902;6.024;2023-09-30T15:15:27;19.70;99.90
52459;DHT22;38372;52.902;6.024;2023-09-30T15:17:53;19.60;99.90
52459;DHT22;38372;52.902;6.024;2023-09-30T15:20:38;19.70;99.90
52459;DHT22;38372;52.902;6.024;2023-09-30T15:23:05;19.70;99.90
52459;DHT22;38372;52.902;6.024;2023-09-30T15:25:32;19.70;99.90
52459;DHT22;38372;52.902;6.024;2023-09-30T15:27:57;19.60;99.90
52459;DHT22;38372;52.902;6.024;2023-09-30T15:30:23;19.60;99.90
52459;DHT22;38372;52.902;6.024;2023-09-30T15:32:49;19.50;99.90
52459;DHT22;38372;52.902;6.024;2023-09-30T15:35:15;19.50;99.90
52459;DHT22;38372;52.902;6.024;2023-09-30T15:37:41;19.40;99.90
52459;DHT22;38372;52.902;6.024;2023-09-30T15:40:07;19.30;99.90
52459;DHT22;38372;52.902;6.024;2023-09-30T15:42:33;19.30;99.90
52459;DHT22;38372;52.902;6.024;2023-09-30T15:44:59;19.20;99.90
52459;DHT22;38372;52.902;6.024;2023-09-30T15:47:24;19.20;99.90
52459;DHT22;38372;52.902;6.024;2023-09-30T15:49:51;19.10;99.90